createdAt,value
2023-02-27T00:03:49.177Z,-0.39
2023-02-27T00:08:52.169Z,-0.38
2023-02-27T00:13:55.178Z,-0.40
2023-02-27T00:19:01.526Z,-0.40
2023-02-27T00:24:05.443Z,-0.42
2023-02-27T00:29:08.426Z,-0.43
2023-02-27T00:34:11.570Z,-0.43
2023-02-27T00:39:15.705Z,-0.50
2023-02-27T00:44:19.134Z,-0.59
2023-02-27T00:49:22.108Z,-0.65
2023-02-27T00:54:24.917Z,-0.67
2023-02-27T00:59:28.003Z,-0.62
2023-02-27T01:04:30.948Z,-0.60
2023-02-27T01:09:34.120Z,-0.61
2023-02-27T01:14:37.385Z,-0.57
2023-02-27T01:19:41.394Z,-0.57
2023-02-27T01:24:44.360Z,-0.51
2023-02-27T01:29:47.180Z,-0.46
2023-02-27T01:34:50.478Z,-0.41
2023-02-27T01:39:53.240Z,-0.38
2023-02-27T01:45:13.070Z,-0.38
2023-02-27T01:50:18.034Z,-0.37
2023-02-27T01:55:22.703Z,-0.36
2023-02-27T02:00:26.611Z,-0.38
2023-02-27T02:05:30.578Z,-0.39
2023-02-27T02:10:33.982Z,-0.37
2023-02-27T02:15:44.702Z,-0.33
2023-02-27T02:21:14.795Z,-0.28
2023-02-27T02:27:23.355Z,-0.24
2023-02-27T02:32:59.847Z,-0.17
2023-02-27T02:38:40.214Z,-0.11
2023-02-27T02:44:45.923Z,-0.06
2023-02-27T02:50:16.546Z,-0.01
2023-02-27T02:55:37.199Z,0.00
2023-02-27T03:01:04.486Z,0.02
2023-02-27T03:06:34.812Z,0.06
2023-02-27T03:11:45.056Z,0.07
2023-02-27T03:16:53.610Z,0.08
2023-02-27T03:22:09.010Z,0.08
2023-02-27T03:27:12.602Z,0.06
2023-02-27T03:32:52.613Z,0.05
2023-02-27T03:38:16.610Z,0.05
2023-02-27T03:43:35.987Z,0.06
2023-02-27T03:48:44.656Z,0.09
2023-02-27T03:54:35.272Z,0.11
2023-02-27T03:59:38.844Z,0.11
2023-02-27T04:04:41.916Z,0.11
2023-02-27T04:10:12.554Z,0.10
2023-02-27T04:15:21.562Z,0.07
2023-02-27T04:20:44.559Z,0.04
2023-02-27T04:26:14.003Z,-0.01
2023-02-27T04:31:30.555Z,-0.03
2023-02-27T04:36:49.162Z,-0.05
2023-02-27T04:42:23.934Z,-0.05
2023-02-27T04:47:35.192Z,-0.03
2023-02-27T04:52:44.879Z,-0.03
2023-02-27T04:58:01.915Z,-0.02
2023-02-27T05:03:17.131Z,-0.04
2023-02-27T05:09:10.009Z,-0.05
2023-02-27T05:14:21.888Z,-0.06
2023-02-27T05:19:24.871Z,-0.10
2023-02-27T05:24:43.507Z,-0.15
2023-02-27T05:29:51.467Z,-0.20
2023-02-27T05:35:20.918Z,-0.28
2023-02-27T05:40:31.301Z,-0.31
2023-02-27T05:45:37.776Z,-0.35
2023-02-27T05:50:44.063Z,-0.40
2023-02-27T05:55:56.683Z,-0.40
2023-02-27T06:01:08.107Z,-0.39
2023-02-27T06:06:18.261Z,-0.39
2023-02-27T06:11:21.392Z,-0.33
2023-02-27T06:16:24.404Z,-0.26
2023-02-27T06:21:27.387Z,-0.17
2023-02-27T06:26:30.348Z,-0.03
2023-02-27T06:31:33.350Z,0.11
2023-02-27T06:36:36.381Z,0.22
2023-02-27T06:41:39.323Z,0.34
2023-02-27T06:46:42.428Z,0.48
2023-02-27T06:51:45.564Z,0.60
2023-02-27T06:56:48.531Z,0.75
2023-02-27T07:01:52.022Z,0.91
2023-02-27T07:07:34.352Z,1.07
2023-02-27T07:12:17.779Z,1.24
2023-02-27T07:17:22.549Z,1.37
2023-02-27T07:22:25.416Z,1.44
2023-02-27T07:27:28.184Z,1.56
2023-02-27T07:32:31.194Z,1.65
2023-02-27T07:37:34.175Z,1.75
2023-02-27T07:42:37.226Z,1.81
2023-02-27T07:47:40.054Z,1.98
2023-02-27T07:52:44.443Z,2.12
2023-02-27T07:57:47.446Z,2.37
2023-02-27T08:02:50.630Z,2.60
2023-02-27T08:07:53.697Z,2.97
2023-02-27T08:12:56.913Z,3.22
2023-02-27T08:18:00.041Z,3.62
2023-02-27T08:23:03.084Z,3.66
2023-02-27T08:28:06.060Z,3.62
2023-02-27T08:33:08.987Z,3.35
2023-02-27T08:38:11.909Z,3.19
2023-02-27T08:43:14.693Z,2.98
2023-02-27T08:48:18.619Z,2.89
2023-02-27T08:53:22.999Z,2.91
2023-02-27T08:58:26.136Z,3.07
2023-02-27T09:03:29.244Z,3.14
2023-02-27T09:08:32.688Z,3.27
2023-02-27T09:13:35.667Z,3.28
2023-02-27T09:18:38.641Z,3.42
2023-02-27T09:23:41.948Z,3.80
2023-02-27T09:28:45.084Z,4.01
2023-02-27T09:33:48.090Z,4.20
2023-02-27T09:38:51.126Z,4.28
2023-02-27T09:43:54.049Z,4.22
2023-02-27T09:49:04.922Z,4.18
2023-02-27T09:54:10.492Z,4.16
2023-02-27T09:59:25.269Z,4.17
2023-02-27T10:04:50.998Z,4.06
2023-02-27T10:10:25.867Z,4.07
2023-02-27T10:15:39.207Z,4.12
2023-02-27T10:21:02.787Z,4.16
2023-02-27T10:26:07.694Z,4.29
2023-02-27T10:31:21.455Z,4.35
2023-02-27T10:36:33.549Z,4.38
2023-02-27T10:41:39.960Z,4.29
2023-02-27T10:46:43.461Z,4.43
2023-02-27T10:52:04.418Z,4.81
2023-02-27T10:57:37.388Z,5.10
2023-02-27T11:02:43.749Z,5.04
2023-02-27T11:07:47.205Z,5.00
2023-02-27T11:13:18.610Z,4.91
2023-02-27T11:18:32.042Z,4.76
2023-02-27T11:23:35.891Z,4.93
2023-02-27T11:28:38.736Z,5.16
2023-02-27T11:33:54.910Z,5.39
2023-02-27T11:38:58.026Z,5.92
2023-02-27T11:44:05.632Z,6.43
2023-02-27T11:49:34.849Z,6.70
2023-02-27T11:54:58.853Z,6.57
2023-02-27T12:00:26.981Z,6.29
2023-02-27T12:05:40.298Z,5.86
2023-02-27T12:11:11.297Z,5.77
2023-02-27T12:16:39.169Z,5.74
2023-02-27T12:21:52.190Z,5.71
2023-02-27T12:27:22.304Z,5.80
2023-02-27T12:32:45.239Z,5.99
2023-02-27T12:37:48.598Z,6.13
2023-02-27T12:43:03.094Z,6.14
2023-02-27T12:48:41.073Z,6.26
2023-02-27T12:53:57.605Z,6.26
2023-02-27T12:59:09.444Z,6.29
2023-02-27T13:04:30.413Z,6.34
2023-02-27T13:10:01.226Z,6.25
2023-02-27T13:15:19.030Z,6.16
2023-02-27T13:20:22.019Z,5.85
2023-02-27T13:25:26.016Z,5.53
2023-02-27T13:30:40.878Z,5.31
2023-02-27T13:36:13.297Z,5.19
2023-02-27T13:41:25.442Z,5.10
2023-02-27T13:46:33.263Z,5.17
2023-02-27T13:51:36.140Z,5.27
2023-02-27T13:56:45.409Z,5.36
2023-02-27T14:01:58.186Z,5.41
2023-02-27T14:07:15.145Z,5.38
2023-02-27T14:12:43.982Z,5.23
2023-02-27T14:17:56.818Z,5.15
2023-02-27T14:23:17.712Z,5.13
2023-02-27T14:28:32.056Z,5.04
2023-02-27T14:33:45.431Z,5.04
2023-02-27T14:38:49.439Z,5.15
2023-02-27T14:43:57.704Z,5.23
2023-02-27T14:49:05.437Z,5.29
2023-02-27T14:54:28.224Z,5.33
2023-02-27T14:59:34.631Z,5.29
2023-02-27T15:04:37.490Z,5.22
2023-02-27T15:09:44.849Z,5.14
2023-02-27T15:14:57.368Z,4.98
2023-02-27T15:20:00.524Z,4.80
2023-02-27T15:25:07.039Z,4.67
2023-02-27T15:30:21.829Z,4.48
2023-02-27T15:35:42.774Z,4.30
2023-02-27T15:40:45.756Z,4.08
2023-02-27T15:45:50.251Z,3.92
2023-02-27T15:51:04.406Z,3.72
2023-02-27T15:56:13.399Z,3.49
2023-02-27T16:01:35.192Z,3.25
2023-02-27T16:06:40.973Z,3.04
2023-02-27T16:11:44.004Z,2.81
2023-02-27T16:16:56.454Z,2.63
2023-02-27T16:22:18.190Z,2.38
2023-02-27T16:27:28.753Z,2.13
2023-02-27T16:32:41.482Z,1.81
2023-02-27T16:37:46.274Z,1.53
2023-02-27T16:42:50.509Z,1.24
2023-02-27T16:47:59.323Z,0.97
2023-02-27T16:53:02.305Z,0.71
2023-02-27T16:58:06.826Z,0.50
2023-02-27T17:03:09.897Z,0.36
2023-02-27T17:08:12.899Z,0.23
2023-02-27T17:13:17.373Z,0.06
2023-02-27T17:18:20.627Z,-0.11
2023-02-27T17:23:23.781Z,-0.30
2023-02-27T17:28:27.232Z,-0.46
2023-02-27T17:33:31.832Z,-0.58
2023-02-27T17:38:35.709Z,-0.71
2023-02-27T17:43:39.927Z,-0.84
2023-02-27T17:48:42.934Z,-0.99
2023-02-27T17:53:46.140Z,-1.15
2023-02-27T17:58:49.105Z,-1.28
2023-02-27T18:03:54.330Z,-1.42
2023-02-27T18:08:57.904Z,-1.56
2023-02-27T18:14:00.809Z,-1.67
2023-02-27T18:19:06.306Z,-1.80
2023-02-27T18:24:10.689Z,-1.90
2023-02-27T18:29:16.311Z,-1.91
2023-02-27T18:34:21.280Z,-1.88
2023-02-27T18:39:24.380Z,-1.82
2023-02-27T18:44:27.457Z,-1.78
2023-02-27T18:49:30.376Z,-1.82
2023-02-27T18:54:33.474Z,-1.91
2023-02-27T18:59:37.505Z,-1.98
2023-02-27T19:04:40.714Z,-2.03
2023-02-27T19:09:44.690Z,-2.10
2023-02-27T19:14:47.707Z,-2.20
2023-02-27T19:19:51.070Z,-2.29
2023-02-27T19:24:54.193Z,-2.31
2023-02-27T19:29:57.222Z,-2.25
2023-02-27T19:35:00.931Z,-2.21
2023-02-27T19:40:04.183Z,-2.25
2023-02-27T19:45:07.954Z,-2.23
2023-02-27T19:50:11.771Z,-2.23
2023-02-27T19:55:15.937Z,-2.28
2023-02-27T20:00:19.941Z,-2.33
2023-02-27T20:05:25.086Z,-2.39
2023-02-27T20:10:29.124Z,-2.46
2023-02-27T20:15:31.879Z,-2.53
2023-02-27T20:20:34.832Z,-2.55
2023-02-27T20:25:37.784Z,-2.56
2023-02-27T20:30:40.771Z,-2.54
2023-02-27T20:35:43.848Z,-2.45
2023-02-27T20:40:46.834Z,-2.42
2023-02-27T20:45:50.002Z,-2.38
2023-02-27T20:50:52.770Z,-2.40
2023-02-27T20:55:55.802Z,-2.44
2023-02-27T21:00:58.836Z,-2.49
2023-02-27T21:06:02.833Z,-2.60
2023-02-27T21:11:16.048Z,-2.72
2023-02-27T21:16:19.773Z,-2.82
2023-02-27T21:21:28.092Z,-2.92
2023-02-27T21:26:38.303Z,-3.03
2023-02-27T21:31:45.225Z,-3.14
2023-02-27T21:36:49.199Z,-3.20
2023-02-27T21:41:52.954Z,-3.28
2023-02-27T21:46:56.233Z,-3.31
2023-02-27T21:51:58.989Z,-3.36
2023-02-27T21:57:03.231Z,-3.39
2023-02-27T22:02:06.022Z,-3.43
2023-02-27T22:07:11.383Z,-3.42
2023-02-27T22:12:16.204Z,-3.38
2023-02-27T22:17:19.279Z,-3.35
2023-02-27T22:22:22.194Z,-3.33
2023-02-27T22:27:25.229Z,-3.28
2023-02-27T22:32:28.855Z,-3.16
2023-02-27T22:37:31.932Z,-3.07
2023-02-27T22:42:34.820Z,-3.04
2023-02-27T22:47:37.730Z,-3.01
2023-02-27T22:52:40.629Z,-2.98
2023-02-27T22:57:43.733Z,-2.93
2023-02-27T23:02:46.590Z,-2.87
2023-02-27T23:07:50.005Z,-2.77
2023-02-27T23:12:52.742Z,-2.67
2023-02-27T23:17:58.535Z,-2.59
2023-02-27T23:23:01.643Z,-2.49
2023-02-27T23:28:06.091Z,-2.44
2023-02-27T23:33:08.972Z,-2.38
2023-02-27T23:38:11.931Z,-2.29
2023-02-27T23:43:33.511Z,-2.25
2023-02-27T23:48:36.926Z,-2.26
2023-02-27T23:53:41.708Z,-2.25
2023-02-27T23:58:46.545Z,-2.22
